Time;durP1;ratioP1;P1;durP2;ratioP2;P2;SDS_P1;SDS_P2;PMS_P1;PMS_P2;Temp;Humidity;BMP_temperature;BMP_pressure;BME280_temperature;BME280_humidity;BME280_pressure;Samples;Min_cycle;Max_cycle;Signal;HPM_P1;HPM_P2
2023/12/29 00:00:26;;;;;;;5.43;0.95;;;;;;;;;;4987074;28;20061;-71
2023/12/29 00:02:53;;;;;;;1.92;0.68;;;;;;;;;;4970455;28;20066;-72
2023/12/29 00:05:26;;;;;;;7.50;1.40;;;;;;;;;;4963489;28;20054;-71
2023/12/29 00:07:56;;;;;;;8.23;1.00;;;;;;;;;;4969665;28;20141;-71
2023/12/29 00:10:29;;;;;;;4.93;0.93;;;;;;;;;;4960778;28;20042;-70
2023/12/29 00:12:58;;;;;;;9.15;1.25;;;;;;;;;;4963983;28;20118;-69
2023/12/29 00:15:27;;;;;;;3.30;0.90;;;;;;;;;;4930154;28;20058;-70
2023/12/29 00:17:54;;;;;;;10.00;1.67;;;;;;;;;;4950023;28;20093;-71
2023/12/29 00:20:24;;;;;;;8.75;1.42;;;;;;;;;;4947915;28;20047;-71
2023/12/29 00:22:53;;;;;;;8.80;1.83;;;;;;;;;;4958953;28;20066;-68
2023/12/29 00:25:21;;;;;;;4.82;1.75;;;;;;;;;;4945590;28;20054;-71
2023/12/29 00:27:49;;;;;;;5.30;1.65;;;;;;;;;;4954126;28;20062;-71
2023/12/29 00:30:18;;;;;;;7.88;2.13;;;;;;;;;;4954703;28;20051;-70
2023/12/29 00:32:44;;;;;;;8.32;1.70;;;;;;;;;;4946528;28;20058;-69
2023/12/29 00:35:11;;;;;;;6.38;1.20;;;;;;;;;;4952461;28;20053;-67
2023/12/29 00:37:38;;;;;;;6.10;1.08;;;;;;;;;;4953493;28;20146;-67
2023/12/29 00:40:07;;;;;;;5.50;0.90;;;;;;;;;;4951341;28;20071;-68
2023/12/29 00:42:35;;;;;;;6.45;1.23;;;;;;;;;;4939238;28;20091;-68
2023/12/29 00:45:01;;;;;;;6.97;1.10;;;;;;;;;;4936638;28;20062;-68
2023/12/29 00:47:30;;;;;;;2.67;0.90;;;;;;;;;;4958586;28;20043;-67
2023/12/29 00:49:57;;;;;;;7.93;1.05;;;;;;;;;;4959537;28;20065;-68
2023/12/29 00:52:24;;;;;;;7.82;0.98;;;;;;;;;;4948965;28;20045;-67
2023/12/29 00:54:51;;;;;;;10.52;1.10;;;;;;;;;;4954953;28;20047;-68
2023/12/29 00:57:17;;;;;;;2.60;0.73;;;;;;;;;;4956147;28;20054;-70
2023/12/29 00:59:48;;;;;;;8.20;1.10;;;;;;;;;;4950260;28;20138;-68
2023/12/29 01:02:14;;;;;;;5.28;1.25;;;;;;;;;;4966641;28;20085;-68
2023/12/29 01:04:41;;;;;;;10.50;1.17;;;;;;;;;;4958784;28;20066;-69
2023/12/29 01:07:08;;;;;;;7.80;1.02;;;;;;;;;;4971341;28;20068;-68
2023/12/29 01:09:39;;;;;;;5.53;1.20;;;;;;;;;;4990795;28;20153;-68
2023/12/29 01:12:06;;;;;;;3.83;0.85;;;;;;;;;;4975834;28;20139;-69
2023/12/29 01:14:33;;;;;;;7.95;1.55;;;;;;;;;;4962176;28;20078;-69
2023/12/29 01:17:03;;;;;;;7.22;1.33;;;;;;;;;;4960246;28;20135;-68
2023/12/29 01:19:30;;;;;;;9.68;0.90;;;;;;;;;;4947302;28;20142;-68
2023/12/29 01:21:57;;;;;;;7.32;1.88;;;;;;;;;;4957427;28;20065;-69
2023/12/29 01:24:23;;;;;;;10.82;1.50;;;;;;;;;;4950116;28;20085;-68
2023/12/29 01:26:50;;;;;;;7.15;1.27;;;;;;;;;;4985621;28;21149;-70
2023/12/29 01:29:17;;;;;;;9.00;2.05;;;;;;;;;;4989098;28;20061;-70
2023/12/29 01:31:47;;;;;;;8.93;1.08;;;;;;;;;;4975153;28;20049;-69
2023/12/29 01:34:16;;;;;;;11.90;1.40;;;;;;;;;;4965446;28;20061;-70
2023/12/29 01:36:45;;;;;;;6.78;0.90;;;;;;;;;;4970768;28;20067;-69
2023/12/29 01:39:12;;;;;;;7.40;1.27;;;;;;;;;;4975345;28;20057;-72
2023/12/29 01:41:39;;;;;;;5.85;0.77;;;;;;;;;;4971579;28;20054;-70
2023/12/29 01:44:23;;;;;;;2.97;0.82;;;;;;;;;;4960534;28;20058;-70
2023/12/29 01:46:52;;;;;;;7.85;1.52;;;;;;;;;;4966197;28;20108;-72
2023/12/29 01:49:20;;;;;;;;;;;;;;;;;;4970564;28;20038;-70
2023/12/29 01:51:50;;;;;;;3.97;0.77;;;;;;;;;;4977542;28;19925;-69
2023/12/29 01:54:19;;;;;;;8.10;0.95;;;;;;;;;;4951267;28;20058;-69
2023/12/29 01:56:48;;;;;;;6.10;0.95;;;;;;;;;;4971656;28;20062;-68
2023/12/29 01:59:14;;;;;;;;;;;;;;;;;;4974834;28;20057;-71
2023/12/29 02:01:42;;;;;;;3.13;0.85;;;;;;;;;;4968629;28;20025;-72
2023/12/29 02:04:09;;;;;;;4.78;1.00;;;;;;;;;;4965894;28;20145;-69
2023/12/29 02:06:39;;;;;;;5.60;0.93;;;;;;;;;;4949836;28;20108;-70
2023/12/29 02:09:06;;;;;;;7.10;0.88;;;;;;;;;;4975850;28;20062;-70
2023/12/29 02:11:32;;;;;;;8.80;1.38;;;;;;;;;;4973114;28;20065;-68
2023/12/29 02:14:01;;;;;;;6.13;1.05;;;;;;;;;;4955195;28;20062;-69
2023/12/29 02:16:34;;;;;;;4.25;0.95;;;;;;;;;;4962384;28;20054;-67
2023/12/29 02:19:05;;;;;;;4.47;0.90;;;;;;;;;;4978425;28;20042;-69
2023/12/29 02:21:32;;;;;;;5.47;1.00;;;;;;;;;;4975874;28;20054;-69
2023/12/29 02:24:00;;;;;;;3.63;1.00;;;;;;;;;;4972671;28;20062;-70
2023/12/29 02:26:34;;;;;;;6.75;1.40;;;;;;;;;;4983978;28;20049;-70
2023/12/29 02:29:06;;;;;;;25.20;2.13;;;;;;;;;;4973824;28;20080;-69
2023/12/29 02:31:39;;;;;;;1.63;0.75;;;;;;;;;;4973783;28;20043;-69
2023/12/29 02:34:10;;;;;;;3.40;0.93;;;;;;;;;;4960972;28;20050;-71
2023/12/29 02:36:42;;;;;;;10.82;1.90;;;;;;;;;;4953274;28;20089;-69
2023/12/29 02:39:10;;;;;;;1.70;0.63;;;;;;;;;;4978949;28;20081;-69
2023/12/29 02:41:38;;;;;;;5.93;1.07;;;;;;;;;;4974752;28;20054;-70
2023/12/29 02:44:05;;;;;;;10.93;1.23;;;;;;;;;;4963515;28;20121;-70
2023/12/29 02:46:32;;;;;;;3.83;1.10;;;;;;;;;;4970637;28;20062;-69
2023/12/29 02:48:59;;;;;;;5.82;1.20;;;;;;;;;;4976208;28;20054;-68
2023/12/29 02:51:26;;;;;;;9.55;1.50;;;;;;;;;;4964500;28;20046;-68
2023/12/29 02:53:53;;;;;;;11.85;1.55;;;;;;;;;;4985858;28;20054;-69
2023/12/29 02:56:19;;;;;;;2.08;1.05;;;;;;;;;;4967222;28;20121;-68
2023/12/29 02:58:48;;;;;;;3.85;1.30;;;;;;;;;;4967682;28;21964;-67
2023/12/29 03:01:16;;;;;;;4.93;0.80;;;;;;;;;;4953449;28;20142;-67
2023/12/29 03:03:43;;;;;;;5.75;0.95;;;;;;;;;;4964547;28;20086;-69
2023/12/29 03:06:10;;;;;;;7.55;1.17;;;;;;;;;;4960314;28;20138;-70
2023/12/29 03:08:36;;;;;;;5.93;1.23;;;;;;;;;;4986644;28;20054;-70
2023/12/29 03:11:03;;;;;;;5.03;1.10;;;;;;;;;;4961524;28;20057;-71
2023/12/29 03:13:30;;;;;;;5.85;1.20;;;;;;;;;;4962233;28;20102;-72
2023/12/29 03:15:58;;;;;;;5.18;1.13;;;;;;;;;;4966871;28;20090;-69
2023/12/29 03:18:25;;;;;;;5.93;1.08;;;;;;;;;;4971936;28;20109;-71
2023/12/29 03:20:51;;;;;;;3.13;1.02;;;;;;;;;;4963009;28;20053;-71
2023/12/29 03:23:18;;;;;;;6.00;0.95;;;;;;;;;;4951832;28;20057;-70
2023/12/29 03:25:45;;;;;;;5.60;1.13;;;;;;;;;;4986073;28;20059;-69
2023/12/29 03:28:11;;;;;;;8.70;1.70;;;;;;;;;;4970630;28;20065;-68
2023/12/29 03:30:38;;;;;;;13.52;1.20;;;;;;;;;;4976176;28;20065;-70
2023/12/29 03:33:07;;;;;;;7.30;1.23;;;;;;;;;;4970313;28;20053;-70
2023/12/29 03:35:33;;;;;;;11.20;1.40;;;;;;;;;;4973770;28;20062;-69
2023/12/29 03:38:00;;;;;;;8.82;1.80;;;;;;;;;;4975463;28;20054;-68
2023/12/29 03:40:27;;;;;;;11.32;1.20;;;;;;;;;;4975352;28;20046;-69
2023/12/29 03:42:54;;;;;;;4.03;1.00;;;;;;;;;;4913296;28;20055;-69
2023/12/29 03:45:20;;;;;;;11.57;1.60;;;;;;;;;;4952594;28;20096;-69
2023/12/29 03:47:47;;;;;;;6.30;1.10;;;;;;;;;;4955219;28;20069;-69
2023/12/29 03:50:16;;;;;;;10.15;1.23;;;;;;;;;;4950690;28;20087;-68
2023/12/29 03:52:42;;;;;;;4.32;0.75;;;;;;;;;;4957649;28;20054;-69
2023/12/29 03:55:12;;;;;;;10.60;1.15;;;;;;;;;;4967872;28;20561;-68
2023/12/29 03:57:39;;;;;;;7.18;1.20;;;;;;;;;;4973931;28;20062;-68
2023/12/29 04:00:12;;;;;;;10.85;1.52;;;;;;;;;;4977883;28;20057;-69
2023/12/29 04:02:38;;;;;;;11.18;1.52;;;;;;;;;;4973679;28;20245;-69
2023/12/29 04:05:09;;;;;;;8.70;1.30;;;;;;;;;;4978972;28;20058;-68
2023/12/29 04:07:40;;;;;;;11.07;1.75;;;;;;;;;;4976077;28;20132;-68
2023/12/29 04:10:10;;;;;;;8.63;1.40;;;;;;;;;;4977634;28;20148;-69
2023/12/29 04:12:37;;;;;;;8.57;1.70;;;;;;;;;;4975078;28;20057;-69
2023/12/29 04:15:04;;;;;;;5.53;1.60;;;;;;;;;;4978996;28;20054;-69
2023/12/29 04:17:31;;;;;;;11.23;1.50;;;;;;;;;;4968358;28;20046;-68
2023/12/29 04:19:58;;;;;;;5.40;0.70;;;;;;;;;;4978696;28;20109;-68
2023/12/29 04:22:24;;;;;;;14.65;1.40;;;;;;;;;;4964658;28;20086;-68
2023/12/29 04:24:52;;;;;;;8.70;1.10;;;;;;;;;;4974640;28;20125;-69
2023/12/29 04:27:19;;;;;;;11.77;1.98;;;;;;;;;;4952132;28;20235;-68
2023/12/29 04:29:46;;;;;;;9.90;1.40;;;;;;;;;;4979870;28;20066;-69
2023/12/29 04:32:12;;;;;;;12.07;1.92;;;;;;;;;;4973086;28;20058;-69
2023/12/29 04:34:39;;;;;;;14.55;1.90;;;;;;;;;;4980971;28;20054;-68
2023/12/29 04:37:06;;;;;;;10.00;1.65;;;;;;;;;;4978168;28;20403;-68
2023/12/29 04:39:32;;;;;;;16.85;1.52;;;;;;;;;;4974414;28;20073;-69
2023/12/29 04:42:01;;;;;;;12.35;1.95;;;;;;;;;;4967583;28;20062;-69
2023/12/29 04:44:28;;;;;;;7.38;1.42;;;;;;;;;;4972463;28;20054;-69
2023/12/29 04:46:56;;;;;;;10.05;1.52;;;;;;;;;;4978228;28;20055;-67
2023/12/29 04:49:23;;;;;;;8.02;1.35;;;;;;;;;;4976052;28;20108;-68
2023/12/29 04:51:49;;;;;;;13.52;1.63;;;;;;;;;;4973339;28;20180;-69
2023/12/29 04:54:16;;;;;;;8.73;1.40;;;;;;;;;;4979649;28;20073;-68
2023/12/29 04:56:43;;;;;;;9.77;1.33;;;;;;;;;;4977258;28;20046;-70
2023/12/29 04:59:11;;;;;;;10.02;1.70;;;;;;;;;;4977963;28;20073;-67
2023/12/29 05:01:38;;;;;;;13.95;2.17;;;;;;;;;;4970866;28;21145;-68
2023/12/29 05:04:04;;;;;;;6.28;1.20;;;;;;;;;;4975810;28;20059;-67
2023/12/29 05:06:31;;;;;;;4.50;1.05;;;;;;;;;;4980911;28;20069;-69
2023/12/29 05:08:58;;;;;;;15.32;1.33;;;;;;;;;;4974926;28;20073;-68
2023/12/29 05:11:25;;;;;;;7.32;1.23;;;;;;;;;;4970260;28;20076;-69
2023/12/29 05:13:52;;;;;;;9.63;1.63;;;;;;;;;;4978256;28;20058;-68
2023/12/29 05:16:20;;;;;;;12.85;1.27;;;;;;;;;;4976780;28;20050;-68
2023/12/29 05:18:47;;;;;;;18.73;2.15;;;;;;;;;;4975906;28;20061;-68
2023/12/29 05:21:18;;;;;;;7.00;1.30;;;;;;;;;;4961401;28;20100;-70
2023/12/29 05:23:45;;;;;;;12.63;1.30;;;;;;;;;;4956408;28;20169;-72
2023/12/29 05:26:12;;;;;;;15.77;1.83;;;;;;;;;;4958477;28;20616;-68
2023/12/29 05:28:39;;;;;;;3.75;1.23;;;;;;;;;;4940247;28;20055;-72
2023/12/29 05:31:05;;;;;;;12.43;1.42;;;;;;;;;;4911875;28;20074;-69
2023/12/29 05:33:34;;;;;;;5.63;1.25;;;;;;;;;;4961640;28;20034;-69
2023/12/29 05:36:07;;;;;;;;;;;;;;;;;;4972918;28;20159;-68
2023/12/29 05:38:34;;;;;;;9.77;1.30;;;;;;;;;;4981086;28;19953;-68
2023/12/29 05:41:03;;;;;;;5.93;1.10;;;;;;;;;;4962353;28;20066;-67
2023/12/29 05:43:29;;;;;;;;;;;;;;;;;;4959766;28;20050;-68
2023/12/29 05:45:56;;;;;;;15.38;2.35;;;;;;;;;;4975039;28;19922;-68
2023/12/29 05:48:23;;;;;;;16.10;3.38;;;;;;;;;;4978384;28;20054;-67
2023/12/29 05:50:52;;;;;;;19.20;1.90;;;;;;;;;;4973571;28;20411;-69
2023/12/29 05:53:19;;;;;;;6.47;1.38;;;;;;;;;;4977312;28;20054;-71
2023/12/29 05:55:46;;;;;;;9.02;1.48;;;;;;;;;;4970204;28;20157;-71
2023/12/29 05:58:13;;;;;;;10.73;1.38;;;;;;;;;;4975045;28;20073;-70
2023/12/29 06:00:40;;;;;;;11.63;1.40;;;;;;;;;;4976290;28;20233;-70
2023/12/29 06:03:07;;;;;;;8.23;1.20;;;;;;;;;;4954014;28;20054;-70
2023/12/29 06:05:34;;;;;;;10.13;1.70;;;;;;;;;;4969821;28;20112;-69
2023/12/29 06:08:02;;;;;;;13.55;1.70;;;;;;;;;;4975930;28;20150;-69
2023/12/29 06:10:31;;;;;;;5.88;1.20;;;;;;;;;;4967192;28;20058;-68
2023/12/29 06:12:57;;;;;;;11.50;2.05;;;;;;;;;;4942904;28;20058;-70
2023/12/29 06:15:24;;;;;;;14.73;3.45;;;;;;;;;;4982392;28;20124;-68
2023/12/29 06:17:51;;;;;;;8.65;1.38;;;;;;;;;;4974132;28;20186;-68
2023/12/29 06:20:18;;;;;;;13.00;1.30;;;;;;;;;;4965021;28;20100;-69
2023/12/29 06:22:45;;;;;;;6.88;1.25;;;;;;;;;;4953776;28;20227;-70
2023/12/29 06:25:15;;;;;;;3.97;0.90;;;;;;;;;;4964538;28;20133;-70
2023/12/29 06:27:42;;;;;;;8.25;1.33;;;;;;;;;;4965025;28;20058;-69
2023/12/29 06:30:10;;;;;;;10.20;1.48;;;;;;;;;;4966123;28;20050;-68
2023/12/29 06:32:37;;;;;;;;;;;;;;;;;;4963202;28;20049;-69
2023/12/29 06:35:05;;;;;;;7.57;1.10;;;;;;;;;;4967748;28;19925;-69
2023/12/29 06:37:32;;;;;;;4.73;0.87;;;;;;;;;;4967138;28;20116;-68
2023/12/29 06:39:58;;;;;;;5.25;1.23;;;;;;;;;;4966897;28;20053;-68
2023/12/29 06:42:27;;;;;;;6.28;1.45;;;;;;;;;;4967706;28;20128;-69
2023/12/29 06:44:53;;;;;;;14.73;3.95;;;;;;;;;;4967623;28;20062;-68
2023/12/29 06:47:20;;;;;;;8.02;1.23;;;;;;;;;;4970189;28;20061;-69
2023/12/29 06:49:47;;;;;;;3.20;0.88;;;;;;;;;;4974644;28;20065;-68
2023/12/29 06:52:15;;;;;;;10.57;1.13;;;;;;;;;;4940674;28;20054;-68
2023/12/29 06:54:42;;;;;;;6.15;1.50;;;;;;;;;;4964638;28;20073;-69
2023/12/29 06:57:10;;;;;;;3.33;0.82;;;;;;;;;;4971994;28;20054;-69
2023/12/29 06:59:38;;;;;;;;;;;;;;;;;;4963781;28;20061;-68
2023/12/29 07:02:06;;;;;;;3.78;0.80;;;;;;;;;;4965522;28;19925;-69
2023/12/29 07:04:32;;;;;;;8.95;1.30;;;;;;;;;;4978316;28;20047;-67
2023/12/29 07:07:02;;;;;;;4.07;0.70;;;;;;;;;;4962494;28;20070;-70
2023/12/29 07:09:28;;;;;;;11.90;0.90;;;;;;;;;;4952449;28;20062;-71
2023/12/29 07:11:55;;;;;;;8.02;0.88;;;;;;;;;;4947033;28;20052;-72
2023/12/29 07:14:25;;;;;;;4.45;0.85;;;;;;;;;;4989526;28;20047;-71
2023/12/29 07:16:53;;;;;;;9.20;1.25;;;;;;;;;;4966043;28;20050;-70
2023/12/29 07:19:20;;;;;;;11.32;0.95;;;;;;;;;;4971731;28;20061;-72
2023/12/29 07:21:47;;;;;;;7.20;1.20;;;;;;;;;;4971482;28;20054;-71
2023/12/29 07:24:14;;;;;;;6.60;0.90;;;;;;;;;;4976890;28;20054;-72
2023/12/29 07:26:41;;;;;;;6.43;1.45;;;;;;;;;;4962617;28;20505;-72
2023/12/29 07:29:10;;;;;;;6.75;0.85;;;;;;;;;;4967151;28;20053;-73
2023/12/29 07:31:39;;;;;;;10.27;1.13;;;;;;;;;;4944277;28;20088;-70
2023/12/29 07:34:08;;;;;;;7.90;1.10;;;;;;;;;;4987845;28;20141;-70
2023/12/29 07:36:40;;;;;;;2.28;1.13;;;;;;;;;;4993023;28;20050;-69
2023/12/29 07:39:07;;;;;;;7.18;1.20;;;;;;;;;;4975423;28;20063;-69
2023/12/29 07:41:35;;;;;;;8.52;1.30;;;;;;;;;;4945453;28;20060;-72
2023/12/29 07:44:02;;;;;;;10.60;1.30;;;;;;;;;;4972759;28;20046;-70
2023/12/29 07:46:28;;;;;;;3.65;1.05;;;;;;;;;;4973911;28;20077;-69
2023/12/29 07:48:55;;;;;;;5.88;1.25;;;;;;;;;;4984512;28;20149;-70
2023/12/29 07:51:24;;;;;;;2.78;1.20;;;;;;;;;;4959270;28;20089;-73
2023/12/29 07:53:51;;;;;;;4.97;1.10;;;;;;;;;;4977615;28;20093;-71
2023/12/29 07:56:20;;;;;;;5.53;1.30;;;;;;;;;;4971468;28;20146;-72
2023/12/29 07:58:47;;;;;;;6.82;1.17;;;;;;;;;;4980530;28;20130;-71
2023/12/29 08:01:21;;;;;;;5.07;1.13;;;;;;;;;;4972452;28;20054;-70
2023/12/29 08:03:48;;;;;;;3.53;1.15;;;;;;;;;;4973973;28;20054;-73
2023/12/29 08:06:15;;;;;;;7.45;1.13;;;;;;;;;;4985063;28;20054;-69
2023/12/29 08:08:43;;;;;;;9.20;1.27;;;;;;;;;;4979638;28;20093;-71
2023/12/29 08:11:19;;;;;;;2.97;1.30;;;;;;;;;;4944971;28;20046;-69
2023/12/29 08:13:49;;;;;;;8.23;1.52;;;;;;;;;;4952572;28;20051;-68
2023/12/29 08:16:18;;;;;;;4.97;1.10;;;;;;;;;;4962385;28;20054;-71
2023/12/29 08:18:45;;;;;;;;;;;;;;;;;;4957073;28;20141;-70
2023/12/29 08:21:18;;;;;;;5.30;1.05;;;;;;;;;;4963213;28;19930;-70
2023/12/29 08:23:46;;;;;;;3.88;0.85;;;;;;;;;;4978161;28;20053;-69
2023/12/29 08:26:13;;;;;;;5.97;1.10;;;;;;;;;;4975521;28;20065;-69
2023/12/29 08:28:40;;;;;;;4.63;1.05;;;;;;;;;;4964075;28;20046;-70
2023/12/29 08:31:08;;;;;;;5.40;1.02;;;;;;;;;;4946425;28;20056;-71
2023/12/29 08:33:36;;;;;;;5.20;1.00;;;;;;;;;;4945764;28;20191;-69
2023/12/29 08:36:03;;;;;;;5.57;1.48;;;;;;;;;;4955225;28;20310;-71
2023/12/29 08:38:32;;;;;;;2.67;0.85;;;;;;;;;;4962980;28;20073;-69
2023/12/29 08:41:02;;;;;;;11.30;1.88;;;;;;;;;;4942978;28;20086;-69
2023/12/29 08:43:29;;;;;;;5.07;1.13;;;;;;;;;;4946942;28;20174;-68
2023/12/29 08:45:55;;;;;;;5.90;1.40;;;;;;;;;;4957308;28;20155;-69
2023/12/29 08:48:22;;;;;;;7.53;1.40;;;;;;;;;;4957999;28;20055;-70
2023/12/29 08:50:50;;;;;;;5.90;1.20;;;;;;;;;;4943287;28;20055;-70
2023/12/29 08:53:20;;;;;;;6.47;1.50;;;;;;;;;;4934104;28;20125;-69
2023/12/29 08:55:47;;;;;;;3.72;0.80;;;;;;;;;;4972523;28;20062;-68
2023/12/29 08:58:15;;;;;;;4.60;0.93;;;;;;;;;;4977926;28;20068;-71
2023/12/29 09:00:42;;;;;;;4.72;1.02;;;;;;;;;;4975613;28;20080;-70
2023/12/29 09:03:09;;;;;;;3.28;0.98;;;;;;;;;;4949765;28;20163;-68
2023/12/29 09:05:36;;;;;;;3.60;0.88;;;;;;;;;;4954416;28;20414;-70
2023/12/29 09:08:03;;;;;;;4.97;0.93;;;;;;;;;;4958618;28;20058;-69
2023/12/29 09:10:29;;;;;;;5.53;0.95;;;;;;;;;;4972332;28;20059;-68
2023/12/29 09:12:56;;;;;;;2.50;0.82;;;;;;;;;;4962649;28;20058;-68
2023/12/29 09:15:28;;;;;;;5.38;0.77;;;;;;;;;;4957959;28;20122;-70
2023/12/29 09:17:55;;;;;;;6.30;0.95;;;;;;;;;;4949337;28;20050;-69
2023/12/29 09:20:23;;;;;;;3.97;0.90;;;;;;;;;;4950362;28;20126;-71
2023/12/29 09:22:50;;;;;;;3.95;1.08;;;;;;;;;;4954968;28;20062;-68
2023/12/29 09:25:19;;;;;;;1.50;0.70;;;;;;;;;;4974780;28;20137;-70
2023/12/29 09:27:52;;;;;;;2.45;0.80;;;;;;;;;;4973223;28;20054;-69
2023/12/29 09:30:21;;;;;;;3.92;0.75;;;;;;;;;;4971954;28;20054;-70
2023/12/29 09:32:48;;;;;;;;;;;;;;;;;;4970579;28;20095;-70
2023/12/29 09:35:17;;;;;;;3.17;0.90;;;;;;;;;;4975505;28;19925;-70
2023/12/29 09:37:44;;;;;;;5.93;0.90;;;;;;;;;;4959746;28;20059;-71
2023/12/29 09:40:26;;;;;;;3.42;0.95;;;;;;;;;;4965197;28;20042;-69
2023/12/29 09:42:53;;;;;;;6.80;1.70;;;;;;;;;;4949816;28;20054;-70
2023/12/29 09:45:24;;;;;;;5.15;1.17;;;;;;;;;;4968822;28;20050;-69
2023/12/29 09:47:54;;;;;;;3.45;1.40;;;;;;;;;;4978440;28;20073;-71
2023/12/29 09:50:22;;;;;;;4.55;1.00;;;;;;;;;;4976819;28;20077;-72
2023/12/29 09:52:51;;;;;;;2.67;1.00;;;;;;;;;;4959319;28;20058;-71
2023/12/29 09:55:20;;;;;;;3.47;1.00;;;;;;;;;;4971234;28;20081;-69
2023/12/29 09:57:48;;;;;;;2.20;0.90;;;;;;;;;;4961517;28;20062;-71
2023/12/29 10:00:17;;;;;;;3.10;0.90;;;;;;;;;;4979992;28;20061;-69
2023/12/29 10:02:44;;;;;;;2.22;0.90;;;;;;;;;;4940259;28;20113;-72
2023/12/29 10:05:30;;;;;;;1.33;0.68;;;;;;;;;;4991012;28;20058;-71
2023/12/29 10:07:59;;;;;;;2.95;0.80;;;;;;;;;;4970043;28;20075;-70
2023/12/29 10:10:27;;;;;;;1.75;1.10;;;;;;;;;;4975665;28;20065;-67
2023/12/29 10:12:55;;;;;;;4.13;1.13;;;;;;;;;;4969972;28;20109;-69
2023/12/29 10:15:32;;;;;;;4.63;1.15;;;;;;;;;;4943720;28;20298;-69
2023/12/29 10:18:15;;;;;;;8.55;1.58;;;;;;;;;;4974103;28;20065;-69
2023/12/29 10:20:48;;;;;;;2.88;0.88;;;;;;;;;;4950458;28;20086;-71
2023/12/29 10:23:23;;;;;;;1.95;0.90;;;;;;;;;;4921921;28;20058;-70
2023/12/29 10:25:51;;;;;;;2.92;0.95;;;;;;;;;;4960433;28;20057;-67
2023/12/29 10:28:18;;;;;;;5.32;1.45;;;;;;;;;;4943682;28;20106;-68
2023/12/29 10:30:45;;;;;;;2.58;0.93;;;;;;;;;;4959691;28;20059;-69
2023/12/29 10:33:21;;;;;;;6.03;1.30;;;;;;;;;;4955658;28;20131;-65
2023/12/29 10:36:02;;;;;;;4.28;1.40;;;;;;;;;;4963735;28;20066;-68
2023/12/29 10:38:29;;;;;;;2.15;1.00;;;;;;;;;;4978014;28;20065;-68
2023/12/29 10:40:58;;;;;;;1.65;0.90;;;;;;;;;;4989215;28;20082;-68
2023/12/29 10:43:25;;;;;;;3.13;1.08;;;;;;;;;;4967810;28;20078;-68
2023/12/29 10:46:06;;;;;;;3.90;1.17;;;;;;;;;;4979032;28;20130;-68
2023/12/29 10:48:36;;;;;;;3.70;1.00;;;;;;;;;;4991252;28;20065;-67
2023/12/29 10:51:09;;;;;;;2.25;0.88;;;;;;;;;;4971694;28;20062;-69
2023/12/29 10:53:37;;;;;;;4.20;1.60;;;;;;;;;;4921811;28;20050;-69
2023/12/29 10:56:04;;;;;;;2.83;0.82;;;;;;;;;;4972296;28;20047;-67
2023/12/29 10:58:32;;;;;;;4.95;2.15;;;;;;;;;;4977409;28;20054;-67
2023/12/29 11:01:01;;;;;;;3.72;1.20;;;;;;;;;;4968775;28;20059;-68
2023/12/29 11:03:27;;;;;;;2.38;1.13;;;;;;;;;;4909122;28;20184;-67
2023/12/29 11:06:00;;;;;;;1.95;0.82;;;;;;;;;;4955217;28;20363;-69
2023/12/29 11:08:29;;;;;;;2.70;1.02;;;;;;;;;;4956184;28;20103;-67
2023/12/29 11:10:56;;;;;;;10.90;1.38;;;;;;;;;;4954409;28;20062;-67
2023/12/29 11:13:27;;;;;;;5.78;1.33;;;;;;;;;;4900158;28;20066;-67
2023/12/29 11:15:56;;;;;;;9.18;1.35;;;;;;;;;;4974372;28;20161;-68
2023/12/29 11:18:22;;;;;;;6.05;1.27;;;;;;;;;;4974399;28;20141;-69
2023/12/29 11:20:50;;;;;;;7.32;1.30;;;;;;;;;;4989694;28;20406;-66
2023/12/29 11:23:19;;;;;;;13.20;2.50;;;;;;;;;;4928486;28;20053;-66
2023/12/29 11:25:48;;;;;;;4.90;1.35;;;;;;;;;;4963305;28;20364;-67
2023/12/29 11:28:15;;;;;;;8.13;1.13;;;;;;;;;;4973283;28;20054;-66
2023/12/29 11:30:42;;;;;;;22.58;3.00;;;;;;;;;;4966573;28;20055;-67
2023/12/29 11:33:13;;;;;;;10.93;1.70;;;;;;;;;;4965768;28;20074;-67
2023/12/29 11:35:46;;;;;;;12.07;2.00;;;;;;;;;;4964289;28;20058;-67
2023/12/29 11:38:46;;;;;;;8.93;1.75;;;;;;;;;;4978381;28;20043;-68
2023/12/29 11:41:26;;;;;;;14.38;1.85;;;;;;;;;;4942382;28;20061;-69
2023/12/29 11:44:04;;;;;;;5.65;1.30;;;;;;;;;;4966709;28;20058;-67
2023/12/29 11:46:35;;;;;;;3.90;1.17;;;;;;;;;;4981050;28;20046;-68
2023/12/29 11:49:04;;;;;;;19.17;3.35;;;;;;;;;;4959504;28;20060;-69
2023/12/29 11:51:34;;;;;;;11.93;2.25;;;;;;;;;;4954429;28;20054;-69
2023/12/29 11:54:02;;;;;;;6.72;1.20;;;;;;;;;;4963708;28;20058;-69
2023/12/29 11:56:35;;;;;;;6.53;1.17;;;;;;;;;;4975300;28;20054;-68
2023/12/29 11:59:16;;;;;;;3.65;0.60;;;;;;;;;;4959876;28;20086;-67
2023/12/29 12:01:44;;;;;;;10.13;1.20;;;;;;;;;;4978644;28;20069;-67
2023/12/29 12:04:36;;;;;;;16.05;1.80;;;;;;;;;;4950015;28;20058;-67
2023/12/29 12:07:03;;;;;;;8.63;2.67;;;;;;;;;;4974553;28;20149;-65
2023/12/29 12:09:30;;;;;;;8.85;1.80;;;;;;;;;;4971874;28;20058;-64
2023/12/29 12:11:59;;;;;;;5.78;1.90;;;;;;;;;;4951911;28;20050;-65
2023/12/29 12:14:44;;;;;;;;;;;;;;;;;;4978034;28;20145;-67
2023/12/29 12:17:13;;;;;;;8.32;1.35;;;;;;;;;;4976749;28;20020;-67
2023/12/29 12:19:40;;;;;;;5.47;1.25;;;;;;;;;;4981150;28;20054;-68
2023/12/29 12:22:10;;;;;;;5.53;1.52;;;;;;;;;;4991159;28;22318;-67
2023/12/29 12:24:37;;;;;;;6.28;0.90;;;;;;;;;;4973345;28;20070;-68
2023/12/29 12:27:11;;;;;;;2.95;0.98;;;;;;;;;;4977421;28;20085;-67
2023/12/29 12:29:38;;;;;;;4.68;1.30;;;;;;;;;;4960706;28;20867;-66
2023/12/29 12:32:07;;;;;;;7.90;1.65;;;;;;;;;;4957008;28;20153;-67
2023/12/29 12:34:38;;;;;;;24.42;9.85;;;;;;;;;;4955993;28;20074;-67
2023/12/29 12:37:05;;;;;;;8.65;1.15;;;;;;;;;;4959975;28;20136;-66
2023/12/29 12:39:39;;;;;;;7.03;0.80;;;;;;;;;;4953100;28;20141;-68
2023/12/29 12:42:11;;;;;;;6.22;1.20;;;;;;;;;;4939132;28;20069;-67
2023/12/29 12:44:43;;;;;;;8.80;1.00;;;;;;;;;;4965043;28;20588;-69
2023/12/29 12:47:15;;;;;;;8.30;1.00;;;;;;;;;;4975864;28;20144;-67
2023/12/29 12:49:43;;;;;;;4.45;0.80;;;;;;;;;;4973707;28;20061;-67
2023/12/29 12:52:21;;;;;;;3.70;0.80;;;;;;;;;;4947422;28;20066;-67
2023/12/29 12:54:51;;;;;;;12.30;1.13;;;;;;;;;;4983336;28;20063;-68
2023/12/29 12:57:32;;;;;;;5.82;0.90;;;;;;;;;;4971869;28;20122;-67
2023/12/29 13:00:02;;;;;;;7.68;1.05;;;;;;;;;;4995578;28;20156;-67
2023/12/29 13:02:34;;;;;;;6.95;0.85;;;;;;;;;;4907183;28;20077;-68
2023/12/29 13:05:05;;;;;;;3.13;0.95;;;;;;;;;;4970729;28;20058;-67
2023/12/29 13:07:36;;;;;;;5.93;1.05;;;;;;;;;;4990168;28;20132;-67
2023/12/29 13:10:10;;;;;;;7.55;1.23;;;;;;;;;;4980821;28;20155;-67
2023/12/29 13:12:42;;;;;;;8.35;0.82;;;;;;;;;;4956748;28;20050;-68
2023/12/29 13:15:18;;;;;;;6.43;1.02;;;;;;;;;;4976192;28;20354;-67
2023/12/29 13:17:53;;;;;;;6.65;1.00;;;;;;;;;;4976466;28;20153;-68
2023/12/29 13:20:19;;;;;;;9.07;1.10;;;;;;;;;;4967787;28;20062;-67
2023/12/29 13:22:50;;;;;;;11.43;1.38;;;;;;;;;;4949474;28;20081;-66
2023/12/29 13:25:28;;;;;;;12.63;2.45;;;;;;;;;;4960490;28;20062;-69
2023/12/29 13:27:58;;;;;;;9.02;1.92;;;;;;;;;;4977657;28;20160;-68
2023/12/29 13:30:25;;;;;;;10.25;2.00;;;;;;;;;;4975096;28;20070;-67
2023/12/29 13:33:00;;;;;;;7.18;1.75;;;;;;;;;;4939786;28;20059;-67
2023/12/29 13:35:32;;;;;;;7.07;1.10;;;;;;;;;;4960150;28;20054;-67
2023/12/29 13:38:10;;;;;;;12.10;1.60;;;;;;;;;;4977874;28;20057;-66
2023/12/29 13:40:41;;;;;;;7.45;1.38;;;;;;;;;;4975000;28;20109;-67
2023/12/29 13:43:14;;;;;;;8.93;1.40;;;;;;;;;;4971968;28;20165;-66
2023/12/29 13:45:42;;;;;;;12.88;1.20;;;;;;;;;;4974148;28;20081;-67
2023/12/29 13:48:14;;;;;;;8.20;2.35;;;;;;;;;;4977653;28;20051;-68
2023/12/29 13:50:41;;;;;;;5.75;1.55;;;;;;;;;;4973986;28;20065;-67
2023/12/29 13:53:07;;;;;;;6.75;1.20;;;;;;;;;;4965163;28;20062;-67
2023/12/29 13:55:34;;;;;;;9.27;1.85;;;;;;;;;;4955264;28;20085;-66
2023/12/29 13:58:03;;;;;;;10.70;2.15;;;;;;;;;;4970314;28;20058;-66
2023/12/29 14:00:37;;;;;;;10.15;1.35;;;;;;;;;;4966263;28;20116;-66
2023/12/29 14:03:07;;;;;;;7.57;1.20;;;;;;;;;;4909756;28;20058;-66
2023/12/29 14:05:40;;;;;;;11.73;1.95;;;;;;;;;;4964777;28;20145;-67
2023/12/29 14:08:19;;;;;;;5.82;0.98;;;;;;;;;;4973219;28;20050;-66
2023/12/29 14:10:48;;;;;;;6.13;0.93;;;;;;;;;;4977816;28;20054;-65
2023/12/29 14:13:18;;;;;;;7.88;1.20;;;;;;;;;;4940016;28;20104;-67
2023/12/29 14:15:51;;;;;;;5.13;1.08;;;;;;;;;;4970249;28;20066;-67
2023/12/29 14:18:33;;;;;;;12.63;2.20;;;;;;;;;;4975801;28;20070;-66
2023/12/29 14:21:00;;;;;;;8.10;1.48;;;;;;;;;;4959376;28;20097;-65
2023/12/29 14:23:27;;;;;;;8.48;1.33;;;;;;;;;;4966050;28;20060;-66
2023/12/29 14:25:53;;;;;;;14.15;1.33;;;;;;;;;;4974502;28;20104;-66
2023/12/29 14:28:22;;;;;;;9.35;1.30;;;;;;;;;;4990357;28;20070;-67
2023/12/29 14:30:50;;;;;;;11.65;1.88;;;;;;;;;;4974176;28;20158;-68
2023/12/29 14:33:18;;;;;;;8.93;1.92;;;;;;;;;;4951364;28;20050;-67
2023/12/29 14:35:44;;;;;;;9.05;2.60;;;;;;;;;;4962859;28;20064;-66
2023/12/29 14:38:16;;;;;;;12.45;1.42;;;;;;;;;;4974484;28;20053;-66
2023/12/29 14:40:45;;;;;;;5.90;1.33;;;;;;;;;;4972484;28;20062;-66
2023/12/29 14:43:14;;;;;;;7.72;1.30;;;;;;;;;;4966962;28;20109;-67
2023/12/29 14:45:41;;;;;;;9.70;1.08;;;;;;;;;;4985823;28;20147;-68
2023/12/29 14:48:10;;;;;;;9.05;1.30;;;;;;;;;;4973831;28;20120;-68
2023/12/29 14:50:37;;;;;;;7.30;1.25;;;;;;;;;;4975239;28;20161;-67
2023/12/29 14:53:04;;;;;;;4.65;1.10;;;;;;;;;;4962022;28;20050;-66